Terminal Aerodrome Forecast
Issued by NWS

Home | Current Version | Previous Version | Text Only | Print | Product List | Glossary On
Versions: 1 2 3 4 5 6 7 8 9 10 11 12
000
FTUS44 KBMX 230500
TAFANB
TAF
KANB 230538Z 2306/2406 10010KT P6SM -SHRA OVC020
      TEMPO 2308/2312 BKN015
     FM231200 13012G22KT 6SM SHRA VCTS BKN007CB OVC030
      TEMPO 2316/2318 TSRA BKN007CB
     FM231800 17015G25KT 4SM TSRA SCT007CB BKN015 OVC025
     FM240300 19010KT P6SM SCT250=

USA.gov is the U.S. government's official web portal to all federal, state and local government web resources and services.